Balsamo, Brazil
Current Conditions -  °F | °C
As of 1:00 AM on Tuesday 21 Oct 2014 (Local Time) from SBCG Reporting Station
Broken Clouds Broken Clouds  
Wind Chill: 64°   Ceiling: 600
Heat Index: 64°   Visibility: 6mi
Dew Point: 63°   Wind: 14mph
Humidity: 94%   Direction: 120°ESE
Pressure: 30"   Gusts: NA
Location:  20.17°S, 54.02°W
Report Text: SBCG 210500Z 12012KT 9999 BKN006 18/17 Q1016
Loading
Personal Weather Stations






























Interactive Weather Map
Tropical Storm Tracking
New forecast layout! Learn more

10-Day Weather Forecast

Advertisements
Track Severe Weather on mobile